Station History

Weather Underground - logo

Station Historical Data
Daily Summary for October 3, 2017 Units:  English    Metric   Both
« Previous Day
Next Day »
Daily Weekly Monthly Yearly Custom
  High: Low: Average:
Temperature: 76.1 °F 47.4 °F 61 °F
Dew Point: 49.3 °F 38.7 °F 44 °F
Humidity: 86 % 27 % 58 %
Wind Speed: 9.2 mph 0.0 mph 1.3 mph
Wind Gust: 9.2 mph - -
Wind:- - SW
Pressure: 29.96 in 29.71 in -
Precipitation: 0.00 in    
Historical Graphs
 
 
Tabular Data for October 3, 2017
Time Temperature Dew Point Pressure Wind Wind Speed Wind Gust Humidity Rainfall Rate (Hourly)
00:04 54.2 °F 46.8 °F 29.75 in Calm     76 % 0.00 in
00:08 54.1 °F 46.7 °F 29.74 in Calm     76 % 0.00 in
00:13 54.0 °F 46.6 °F 29.74 in Calm     76 % 0.00 in
00:19 54.0 °F 46.6 °F 29.74 in Calm     76 % 0.00 in
00:23 54.0 °F 47.0 °F 29.74 in Calm     77 % 0.00 in
00:29 53.8 °F 46.8 °F 29.74 in Calm     77 % 0.00 in
00:34 53.6 °F 46.6 °F 29.74 in Calm     77 % 0.00 in
00:39 53.4 °F 46.7 °F 29.74 in Calm     78 % 0.00 in
00:44 53.2 °F 46.5 °F 29.74 in Calm     78 % 0.00 in
00:49 53.1 °F 47.4 °F 29.73 in Calm     81 % 0.00 in
00:54 53.1 °F 47.7 °F 29.73 in Calm     82 % 0.00 in
00:57 53.0 °F 47.3 °F 29.73 in Calm     81 % 0.00 in
01:02 53.0 °F 47.3 °F 29.73 in Calm     81 % 0.00 in
01:03 53.0 °F 47.0 °F 29.73 in Calm     80 % 0.00 in
01:08 52.6 °F 46.6 °F 29.73 in Calm     80 % 0.00 in
01:13 52.4 °F 46.7 °F 29.73 in Calm     81 % 0.00 in
01:18 52.2 °F 46.5 °F 29.73 in Calm     81 % 0.00 in
01:23 52.1 °F 45.8 °F 29.73 in Calm     79 % 0.00 in
01:28 52.1 °F 46.1 °F 29.73 in Calm     80 % 0.00 in
01:33 52.1 °F 45.8 °F 29.73 in Calm     79 % 0.00 in
01:43 51.6 °F 45.6 °F 29.73 in Calm     80 % 0.00 in
01:48 51.4 °F 45.8 °F 29.73 in WNW 1.2 mph   81 % 0.00 in
01:53 51.2 °F 45.2 °F 29.73 in Calm     80 % 0.00 in
01:58 51.0 °F 45.0 °F 29.74 in Calm     80 % 0.00 in
02:03 50.8 °F 44.9 °F 29.73 in Calm     80 % 0.00 in
02:08 50.9 °F 44.6 °F 29.74 in Calm     79 % 0.00 in
02:13 51.0 °F 45.4 °F 29.73 in Calm     81 % 0.00 in
02:18 50.6 °F 45.0 °F 29.73 in Calm     81 % 0.00 in
02:23 50.6 °F 45.0 °F 29.73 in Calm     81 % 0.00 in
02:28 50.6 °F 44.7 °F 29.73 in Calm     80 % 0.00 in
02:33 50.9 °F 44.6 °F 29.73 in Calm     79 % 0.00 in
02:38 51.2 °F 44.2 °F 29.73 in Calm     77 % 0.00 in
02:43 51.3 °F 44.7 °F 29.73 in Calm     78 % 0.00 in
02:48 51.3 °F 44.3 °F 29.73 in Calm     77 % 0.00 in
02:53 51.4 °F 44.4 °F 29.73 in Calm     77 % 0.00 in
02:58 51.4 °F 44.4 °F 29.73 in Calm     77 % 0.00 in
03:03 51.8 °F 44.1 °F 29.73 in Calm     75 % 0.00 in
03:08 52.1 °F 44.1 °F 29.73 in Calm     74 % 0.00 in
03:13 52.3 °F 43.5 °F 29.73 in Calm     72 % 0.00 in
03:18 52.6 °F 43.8 °F 29.72 in Calm     72 % 0.00 in
03:24 52.5 °F 44.4 °F 29.72 in Calm     74 % 0.00 in
03:29 52.4 °F 44.0 °F 29.72 in Calm     73 % 0.00 in
03:34 52.3 °F 44.6 °F 29.72 in Calm     75 % 0.00 in
03:39 52.0 °F 45.0 °F 29.72 in Calm     77 % 0.00 in
03:44 51.6 °F 45.0 °F 29.72 in Calm     78 % 0.00 in
03:49 51.3 °F 45.0 °F 29.72 in Calm     79 % 0.00 in
03:54 51.1 °F 44.8 °F 29.72 in Calm     79 % 0.00 in
03:59 51.0 °F 44.4 °F 29.72 in Calm     78 % 0.00 in
04:04 50.9 °F 44.6 °F 29.72 in Calm     79 % 0.00 in
04:09 51.0 °F 44.7 °F 29.72 in Calm     79 % 0.00 in
04:14 51.1 °F 45.1 °F 29.72 in Calm     80 % 0.00 in
04:19 51.0 °F 44.4 °F 29.72 in Calm     78 % 0.00 in
04:24 51.1 °F 44.5 °F 29.72 in Calm     78 % 0.00 in
04:29 51.2 °F 44.9 °F 29.72 in Calm     79 % 0.00 in
04:34 51.1 °F 44.8 °F 29.72 in Calm     79 % 0.00 in
04:39 50.6 °F 44.3 °F 29.72 in Calm     79 % 0.00 in
04:44 50.3 °F 44.4 °F 29.72 in Calm     80 % 0.00 in
04:49 50.0 °F 44.4 °F 29.72 in Calm     81 % 0.00 in
04:54 49.5 °F 44.2 °F 29.72 in Calm     82 % 0.00 in
04:59 49.2 °F 43.9 °F 29.72 in Calm     82 % 0.00 in
05:04 49.0 °F 44.1 °F 29.72 in Calm     83 % 0.00 in
05:09 49.0 °F 44.1 °F 29.72 in Calm     83 % 0.00 in
05:14 48.9 °F 44.3 °F 29.71 in Calm     84 % 0.00 in
05:19 49.1 °F 44.8 °F 29.71 in Calm     85 % 0.00 in
05:24 49.0 °F 44.7 °F 29.71 in Calm     85 % 0.00 in
05:29 49.0 °F 45.0 °F 29.71 in Calm     86 % 0.00 in
05:34 49.1 °F 44.8 °F 29.71 in Calm     85 % 0.00 in
05:39 49.0 °F 44.7 °F 29.71 in Calm     85 % 0.00 in
05:44 48.9 °F 44.6 °F 29.72 in Calm     85 % 0.00 in
05:49 49.0 °F 45.0 °F 29.71 in Calm     86 % 0.00 in
05:54 49.0 °F 45.0 °F 29.72 in Calm     86 % 0.00 in
05:59 49.2 °F 44.9 °F 29.72 in Calm     85 % 0.00 in
06:04 49.4 °F 44.8 °F 29.72 in Calm     84 % 0.00 in
06:09 49.4 °F 44.8 °F 29.72 in Calm     84 % 0.00 in
06:14 49.2 °F 44.6 °F 29.71 in Calm     84 % 0.00 in
06:19 49.0 °F 44.4 °F 29.72 in Calm     84 % 0.00 in
06:24 48.8 °F 44.2 °F 29.72 in Calm     84 % 0.00 in
06:29 48.6 °F 44.0 °F 29.72 in Calm     84 % 0.00 in
06:34 48.4 °F 44.1 °F 29.72 in Calm     85 % 0.00 in
06:39 48.3 °F 44.3 °F 29.72 in Calm     86 % 0.00 in
06:44 48.3 °F 44.3 °F 29.72 in Calm     86 % 0.00 in
06:50 48.0 °F 43.7 °F 29.72 in Calm     85 % 0.00 in
06:55 47.6 °F 43.3 °F 29.73 in Calm     85 % 0.00 in
07:00 47.4 °F 42.8 °F 29.73 in Calm     84 % 0.00 in
07:05 47.6 °F 42.4 °F 29.73 in Calm     82 % 0.00 in
07:10 47.8 °F 42.3 °F 29.73 in Calm     81 % 0.00 in
07:15 47.7 °F 42.2 °F 29.74 in Calm     81 % 0.00 in
07:20 47.7 °F 42.5 °F 29.74 in West 1.2 mph   82 % 0.00 in
07:25 48.1 °F 42.2 °F 29.74 in West 1.2 mph   80 % 0.00 in
07:26 48.1 °F 42.5 °F 29.74 in Calm     81 % 0.00 in
07:31 48.3 °F 42.7 °F 29.75 in Calm     81 % 0.00 in
07:36 48.5 °F 42.6 °F 29.75 in Calm     80 % 0.00 in
07:41 49.0 °F 43.4 °F 29.75 in Calm     81 % 0.00 in
07:46 49.3 °F 43.4 °F 29.75 in Calm     80 % 0.00 in
07:51 49.7 °F 43.8 °F 29.75 in Calm     80 % 0.00 in
07:56 50.2 °F 44.3 °F 29.75 in Calm     80 % 0.00 in
08:01 50.7 °F 44.4 °F 29.75 in Calm     79 % 0.00 in
08:07 52.2 °F 45.9 °F 29.75 in Calm     79 % 0.00 in
08:12 54.3 °F 46.2 °F 29.75 in Calm     74 % 0.00 in
08:17 55.9 °F 45.9 °F 29.75 in Calm     69 % 0.00 in
08:22 57.0 °F 46.5 °F 29.75 in East 1.2 mph 1.2 mph 68 % 0.00 in
08:27 57.7 °F 46.0 °F 29.75 in ESE 1.2 mph 1.2 mph 65 % 0.00 in
08:32 58.3 °F 46.2 °F 29.75 in ENE 1.2 mph   64 % 0.00 in
08:37 58.6 °F 45.2 °F 29.75 in East 2.3 mph 2.3 mph 61 % 0.00 in
08:42 59.4 °F 45.5 °F 29.75 in East 1.2 mph 1.2 mph 60 % 0.00 in
08:47 60.5 °F 44.2 °F 29.75 in SE 2.3 mph 2.3 mph 55 % 0.00 in
08:52 61.5 °F 44.7 °F 29.75 in Calm     54 % 0.00 in
08:57 62.4 °F 44.0 °F 29.75 in Calm     51 % 0.00 in
09:02 63.4 °F 43.9 °F 29.75 in East 1.2 mph 1.2 mph 49 % 0.00 in
09:07 64.1 °F 43.4 °F 29.75 in SE 1.2 mph   47 % 0.00 in
09:12 64.7 °F 42.9 °F 29.75 in ESE 1.2 mph 1.2 mph 45 % 0.00 in
09:17 65.1 °F 43.2 °F 29.75 in Calm     45 % 0.00 in
09:22 66.1 °F 43.5 °F 29.75 in SE 1.2 mph   44 % 0.00 in
09:27 66.5 °F 43.3 °F 29.75 in Calm     43 % 0.00 in
09:32 67.5 °F 43.6 °F 29.75 in ENE 1.2 mph 1.2 mph 42 % 0.00 in
09:37 67.9 °F 43.3 °F 29.75 in South 3.5 mph 3.5 mph 41 % 0.00 in
09:42 68.4 °F 42.5 °F 29.75 in East 1.2 mph 1.2 mph 39 % 0.00 in
09:47 68.7 °F 43.4 °F 29.75 in ESE 2.3 mph 2.3 mph 40 % 0.00 in
09:52 69.5 °F 42.8 °F 29.76 in East 2.3 mph 2.3 mph 38 % 0.00 in
09:57 69.4 °F 42.0 °F 29.76 in NW 2.3 mph 2.3 mph 37 % 0.00 in
10:02 69.5 °F 42.8 °F 29.77 in NW 2.0 mph 2.0 mph 38 % 0.00 in
10:07 69.8 °F 43.7 °F 29.77 in SSE 1.2 mph 1.2 mph 39 % 0.00 in
10:12 69.9 °F 43.1 °F 29.77 in NW 2.3 mph   38 % 0.00 in
10:17 70.0 °F 41.8 °F 29.77 in NNW 1.2 mph 1.2 mph 36 % 0.00 in
10:22 70.0 °F 42.5 °F 29.77 in WNW 2.3 mph 2.3 mph 37 % 0.00 in
10:27 70.5 °F 43.7 °F 29.77 in ESE 1.2 mph 1.2 mph 38 % 0.00 in
10:32 70.9 °F 41.9 °F 29.77 in WNW 3.0 mph 3.0 mph 35 % 0.00 in
10:37 70.7 °F 43.1 °F 29.77 in NNW 2.0 mph 2.0 mph 37 % 0.00 in
10:42 71.0 °F 44.1 °F 29.77 in SSW 2.3 mph   38 % 0.00 in
10:47 71.2 °F 42.9 °F 29.78 in NNE 1.2 mph 1.2 mph 36 % 0.00 in
10:52 71.6 °F 43.2 °F 29.78 in NNE 5.8 mph 5.8 mph 36 % 0.00 in
10:57 72.0 °F 41.3 °F 29.77 in ENE 3.5 mph 3.5 mph 33 % 0.00 in
11:02 72.4 °F 40.9 °F 29.77 in North 3.5 mph 3.5 mph 32 % 0.00 in
11:07 72.7 °F 41.1 °F 29.77 in North 3.5 mph 3.5 mph 32 % 0.00 in
11:12 72.9 °F 42.1 °F 29.77 in SW 2.3 mph 2.3 mph 33 % 0.00 in
11:17 73.3 °F 41.6 °F 29.77 in SSW 3.5 mph 3.5 mph 32 % 0.00 in
11:22 73.4 °F 40.9 °F 29.77 in WNW 3.5 mph 3.5 mph 31 % 0.00 in
11:27 73.5 °F 41.8 °F 29.78 in SSW 3.5 mph 3.5 mph 32 % 0.00 in
11:32 73.7 °F 42.8 °F 29.78 in SSW 2.3 mph 2.3 mph 33 % 0.00 in
11:37 74.2 °F 42.4 °F 29.78 in WNW 3.5 mph 3.5 mph 32 % 0.00 in
11:42 74.1 °F 42.3 °F 29.78 in ESE 2.3 mph 2.3 mph 32 % 0.00 in
11:47 74.7 °F 45.2 °F 29.78 in SSW 4.0 mph 4.0 mph 35 % 0.00 in
11:48 74.8 °F 45.3 °F 29.78 in East 4.6 mph 4.6 mph 35 % 0.00 in
11:53 75.3 °F 45.0 °F 29.78 in SSW 2.3 mph 2.3 mph 34 % 0.00 in
11:58 75.4 °F 47.3 °F 29.78 in ENE 3.5 mph 3.5 mph 37 % 0.00 in
12:03 75.8 °F 46.9 °F 29.78 in SSE 4.6 mph 4.6 mph 36 % 0.00 in
12:08 75.6 °F 48.2 °F 29.79 in SSE 3.5 mph 3.5 mph 38 % 0.00 in
12:13 75.6 °F 48.9 °F 29.79 in SW 5.8 mph 5.8 mph 39 % 0.00 in
12:18 75.9 °F 48.5 °F 29.79 in NNE 5.8 mph 5.8 mph 38 % 0.00 in
12:23 76.1 °F 49.3 °F 29.79 in NNW 3.5 mph 3.5 mph 39 % 0.00 in
12:28 75.9 °F 47.8 °F 29.79 in SE 4.0 mph 4.0 mph 37 % 0.00 in
12:33 75.9 °F 48.5 °F 29.79 in East 4.0 mph 4.0 mph 38 % 0.00 in
12:38 76.1 °F 47.2 °F 29.79 in SSW 3.5 mph 3.5 mph 36 % 0.00 in
12:43 75.9 °F 47.0 °F 29.79 in South 7.0 mph 7.0 mph 36 % 0.00 in
12:48 75.5 °F 48.1 °F 29.79 in WNW 3.5 mph 3.5 mph 38 % 0.00 in
12:53 75.4 °F 47.3 °F 29.79 in South 6.9 mph 6.9 mph 37 % 0.00 in
12:58 75.3 °F 46.5 °F 29.80 in NW 3.5 mph 3.5 mph 36 % 0.00 in
13:03 75.3 °F 47.2 °F 29.80 in WSW 3.5 mph 3.5 mph 37 % 0.00 in
13:08 75.5 °F 47.4 °F 29.80 in ENE 3.5 mph 3.5 mph 37 % 0.00 in
13:14 75.2 °F 44.9 °F 29.80 in NW 9.2 mph 9.2 mph 34 % 0.00 in
13:19 74.8 °F 46.8 °F 29.80 in East 3.5 mph 3.5 mph 37 % 0.00 in
13:24 74.6 °F 45.9 °F 29.80 in NNW 6.0 mph 6.0 mph 36 % 0.00 in
13:29 74.0 °F 44.6 °F 29.80 in NE 4.6 mph 4.6 mph 35 % 0.00 in
13:34 74.0 °F 44.6 °F 29.80 in NE 6.9 mph 6.9 mph 35 % 0.00 in
13:39 73.9 °F 44.5 °F 29.80 in WNW 3.5 mph 3.5 mph 35 % 0.00 in
13:44 73.5 °F 44.9 °F 29.80 in NE 3.5 mph 3.5 mph 36 % 0.00 in
13:49 73.7 °F 45.1 °F 29.80 in ENE 4.6 mph 4.6 mph 36 % 0.00 in
14:19 73.9 °F 43.0 °F 29.80 in WNW 3.5 mph 3.5 mph 33 % 0.00 in
14:24 74.2 °F 44.0 °F 29.80 in North 3.5 mph 3.5 mph 34 % 0.00 in
14:34 74.7 °F 43.7 °F 29.80 in ENE 4.6 mph 4.6 mph 33 % 0.00 in
14:39 74.5 °F 45.0 °F 29.80 in WNW 1.2 mph 1.2 mph 35 % 0.00 in
14:44 75.0 °F 43.9 °F 29.80 in West 3.5 mph 3.5 mph 33 % 0.00 in
14:49 75.0 °F 43.9 °F 29.80 in SSE 3.5 mph 3.5 mph 33 % 0.00 in
14:54 75.4 °F 44.3 °F 29.80 in WNW 2.3 mph   33 % 0.00 in
14:59 75.2 °F 43.3 °F 29.81 in NW 3.5 mph 3.5 mph 32 % 0.00 in
15:04 75.2 °F 44.1 °F 29.81 in WSW 1.2 mph   33 % 0.00 in
15:09 75.4 °F 43.5 °F 29.81 in SSE 2.3 mph 2.3 mph 32 % 0.00 in
15:14 75.3 °F 43.4 °F 29.80 in SSE 2.3 mph 2.3 mph 32 % 0.00 in
15:19 75.6 °F 43.7 °F 29.80 in WNW 1.2 mph 1.2 mph 32 % 0.00 in
15:24 75.5 °F 42.7 °F 29.81 in NW 2.3 mph 2.3 mph 31 % 0.00 in
15:29 74.9 °F 43.0 °F 29.81 in NNE 1.2 mph 1.2 mph 32 % 0.00 in
15:34 75.2 °F 41.6 °F 29.81 in Calm   0.1 mph 30 % 0.00 in
15:39 75.5 °F 42.7 °F 29.81 in SE 1.2 mph 1.2 mph 31 % 0.00 in
15:44 75.4 °F 40.9 °F 29.81 in NW 3.5 mph 3.5 mph 29 % 0.00 in
15:49 75.0 °F 38.7 °F 29.81 in West 3.5 mph 3.5 mph 27 % 0.00 in
15:54 74.9 °F 39.6 °F 29.81 in NNW 1.2 mph 1.2 mph 28 % 0.00 in
15:59 74.7 °F 40.3 °F 29.81 in NW 2.3 mph 2.3 mph 29 % 0.00 in
16:04 74.4 °F 40.9 °F 29.81 in NW 1.2 mph 1.2 mph 30 % 0.00 in
16:05 74.4 °F 40.9 °F 29.81 in NW 1.2 mph 1.2 mph 30 % 0.00 in
16:10 74.6 °F 40.2 °F 29.81 in SSW 2.3 mph 2.3 mph 29 % 0.00 in
16:15 74.5 °F 41.9 °F 29.82 in NW 3.5 mph 3.5 mph 31 % 0.00 in
16:20 74.1 °F 40.7 °F 29.82 in NW 2.0 mph 2.0 mph 30 % 0.00 in
16:25 73.9 °F 41.3 °F 29.82 in ESE 1.0 mph 1.0 mph 31 % 0.00 in
16:30 73.8 °F 42.9 °F 29.82 in NW 4.6 mph 4.6 mph 33 % 0.00 in
16:35 73.3 °F 42.4 °F 29.82 in WNW 3.5 mph 3.5 mph 33 % 0.00 in
16:40 72.9 °F 42.9 °F 29.82 in West 3.5 mph 3.5 mph 34 % 0.00 in
16:45 72.8 °F 42.8 °F 29.82 in NW 4.6 mph 4.6 mph 34 % 0.00 in
16:50 72.6 °F 42.6 °F 29.82 in NNW 3.5 mph 3.5 mph 34 % 0.00 in
16:55 72.6 °F 44.1 °F 29.82 in NW 2.0 mph 2.0 mph 36 % 0.00 in
17:00 72.2 °F 42.3 °F 29.82 in NW 3.5 mph 3.5 mph 34 % 0.00 in
17:05 72.0 °F 42.1 °F 29.82 in NW 6.0 mph 6.0 mph 34 % 0.00 in
17:10 71.8 °F 42.7 °F 29.83 in WNW 3.5 mph 3.5 mph 35 % 0.00 in
17:15 71.7 °F 42.6 °F 29.83 in NW 4.6 mph 4.6 mph 35 % 0.00 in
17:20 71.4 °F 42.3 °F 29.83 in NW 4.6 mph 4.6 mph 35 % 0.00 in
17:25 71.0 °F 42.7 °F 29.83 in NE 4.0 mph 4.0 mph 36 % 0.00 in
17:30 70.7 °F 41.7 °F 29.83 in NW 4.6 mph 4.6 mph 35 % 0.00 in
17:35 70.5 °F 43.0 °F 29.84 in NW 3.5 mph 3.5 mph 37 % 0.00 in
17:40 70.2 °F 42.0 °F 29.84 in West 3.0 mph 3.0 mph 36 % 0.00 in
17:45 70.0 °F 41.8 °F 29.84 in NE 5.0 mph 5.0 mph 36 % 0.00 in
17:50 69.8 °F 41.6 °F 29.84 in WNW 4.6 mph 4.6 mph 36 % 0.00 in
17:55 69.5 °F 41.4 °F 29.85 in NW 4.6 mph 4.6 mph 36 % 0.00 in
18:00 69.3 °F 41.9 °F 29.85 in WNW 3.5 mph 3.5 mph 37 % 0.00 in
18:05 69.0 °F 41.6 °F 29.85 in WNW 2.3 mph 2.3 mph 37 % 0.00 in
18:10 68.8 °F 41.5 °F 29.85 in NW 3.5 mph 3.5 mph 37 % 0.00 in
18:15 68.5 °F 41.2 °F 29.85 in NNW 2.3 mph 2.3 mph 37 % 0.00 in
18:20 68.1 °F 41.5 °F 29.86 in NW 2.0 mph 2.0 mph 38 % 0.00 in
18:25 67.9 °F 41.3 °F 29.86 in WNW 2.3 mph 2.3 mph 38 % 0.00 in
18:30 67.7 °F 41.2 °F 29.86 in NW 2.3 mph 2.3 mph 38 % 0.00 in
18:35 67.2 °F 41.4 °F 29.86 in NW 1.2 mph 1.2 mph 39 % 0.00 in
18:40 66.8 °F 41.0 °F 29.86 in WNW 1.2 mph 1.2 mph 39 % 0.00 in
18:45 66.5 °F 41.4 °F 29.86 in Calm     40 % 0.00 in
18:55 65.7 °F 41.3 °F 29.86 in Calm     41 % 0.00 in
19:00 65.2 °F 42.1 °F 29.87 in Calm     43 % 0.00 in
19:05 65.0 °F 41.9 °F 29.87 in Calm     43 % 0.00 in
19:10 64.6 °F 42.2 °F 29.87 in Calm     44 % 0.00 in
19:11 64.6 °F 42.2 °F 29.87 in Calm     44 % 0.00 in
19:21 63.7 °F 41.4 °F 29.87 in Calm     44 % 0.00 in
19:26 63.2 °F 42.1 °F 29.87 in Calm     46 % 0.00 in
19:31 62.8 °F 43.3 °F 29.87 in Calm     49 % 0.00 in
19:36 62.5 °F 44.1 °F 29.88 in Calm     51 % 0.00 in
19:41 62.0 °F 43.7 °F 29.88 in Calm     51 % 0.00 in
19:46 61.6 °F 43.3 °F 29.88 in Calm     51 % 0.00 in
19:51 61.2 °F 43.9 °F 29.88 in Calm     53 % 0.00 in
19:56 60.8 °F 43.6 °F 29.88 in Calm     53 % 0.00 in
20:01 60.6 °F 42.9 °F 29.88 in Calm     52 % 0.00 in
20:06 61.3 °F 43.0 °F 29.89 in Calm     51 % 0.00 in
20:11 61.6 °F 43.3 °F 29.89 in Calm     51 % 0.00 in
20:16 61.2 °F 44.9 °F 29.89 in Calm     55 % 0.00 in
20:21 60.7 °F 43.5 °F 29.89 in Calm     53 % 0.00 in
20:22 60.6 °F 44.3 °F 29.89 in Calm     55 % 0.00 in
20:27 60.3 °F 44.1 °F 29.89 in Calm     55 % 0.00 in
20:32 60.0 °F 43.8 °F 29.90 in Calm     55 % 0.00 in
20:33 59.9 °F 43.7 °F 29.90 in Calm     55 % 0.00 in
20:38 59.6 °F 43.4 °F 29.90 in Calm     55 % 0.00 in
20:43 59.3 °F 43.1 °F 29.90 in Calm     55 % 0.00 in
20:48 59.1 °F 42.9 °F 29.90 in Calm     55 % 0.00 in
20:53 58.9 °F 42.8 °F 29.90 in Calm     55 % 0.00 in
20:58 58.7 °F 43.5 °F 29.91 in Calm     57 % 0.00 in
21:03 58.5 °F 43.8 °F 29.91 in Calm     58 % 0.00 in
21:08 58.3 °F 43.6 °F 29.91 in Calm     58 % 0.00 in
21:13 58.0 °F 43.7 °F 29.91 in Calm     59 % 0.00 in
21:18 57.8 °F 44.4 °F 29.91 in Calm     61 % 0.00 in
21:23 57.6 °F 43.8 °F 29.91 in Calm     60 % 0.00 in
21:28 57.2 °F 44.3 °F 29.91 in Calm     62 % 0.00 in
21:33 56.8 °F 45.2 °F 29.91 in Calm   0.1 mph 65 % 0.00 in
21:38 56.0 °F 44.4 °F 29.92 in Calm     65 % 0.00 in
21:43 55.3 °F 44.1 °F 29.92 in Calm     66 % 0.00 in
21:48 54.8 °F 44.4 °F 29.92 in Calm     68 % 0.00 in
21:53 54.5 °F 44.2 °F 29.92 in Calm     68 % 0.00 in
21:58 54.3 °F 44.3 °F 29.92 in Calm     69 % 0.00 in
22:03 54.2 °F 44.6 °F 29.92 in Calm     70 % 0.00 in
22:08 54.4 °F 44.4 °F 29.92 in Calm     69 % 0.00 in
22:13 54.4 °F 44.4 °F 29.92 in Calm     69 % 0.00 in
22:18 54.5 °F 44.9 °F 29.93 in SSW 1.2 mph   70 % 0.00 in
22:23 54.4 °F 44.8 °F 29.93 in Calm     70 % 0.00 in
22:29 54.3 °F 44.3 °F 29.93 in Calm     69 % 0.00 in
22:34 54.3 °F 45.5 °F 29.93 in Calm     72 % 0.00 in
22:39 54.1 °F 45.6 °F 29.93 in Calm     73 % 0.00 in
22:44 53.7 °F 45.6 °F 29.93 in Calm     74 % 0.00 in
22:49 53.1 °F 44.7 °F 29.94 in Calm     73 % 0.00 in
22:54 52.5 °F 44.4 °F 29.94 in Calm     74 % 0.00 in
22:59 52.1 °F 44.4 °F 29.94 in Calm     75 % 0.00 in
23:04 51.7 °F 44.0 °F 29.94 in Calm     75 % 0.00 in
23:09 51.6 °F 43.9 °F 29.94 in Calm     75 % 0.00 in
23:14 51.4 °F 43.7 °F 29.95 in Calm     75 % 0.00 in
23:19 51.4 °F 43.7 °F 29.95 in Calm     75 % 0.00 in
23:24 51.4 °F 43.4 °F 29.95 in Calm     74 % 0.00 in
23:29 51.3 °F 43.6 °F 29.95 in Calm     75 % 0.00 in
23:34 51.2 °F 43.5 °F 29.96 in Calm     75 % 0.00 in
23:39 51.4 °F 43.7 °F 29.96 in Calm     75 % 0.00 in
23:44 51.5 °F 43.8 °F 29.96 in Calm     75 % 0.00 in
23:49 51.4 °F 43.7 °F 29.96 in Calm     75 % 0.00 in
23:54 51.3 °F 43.6 °F 29.96 in Calm     75 % 0.00 in
23:59 51.2 °F 43.5 °F 29.96 in Calm     75 % 0.00 in
Park Place, Exeter, Tulare County, California, USA
Compliments of Weather Underground - 2.75 mb